Terminal Aerodrome Forecast
Issued by NWS Northern Indiana

Home | Current Version | Previous Version | Graphics & Text | Print | Product List | Glossary Off
Versions: 1 2 3 4 5 6 7 8 9 10 11 12 13 14 15 16

000
FTUS43 KIWX 211140
TAFFWA
TAF
KFWA 211140Z 2112/2212 33011KT 6SM -RA BR SCT008 OVC012
      TEMPO 2112/2115 5SM -RA BR OVC008
     FM211500 34011G17KT P6SM OVC012
     FM211800 35011KT P6SM BKN025
     FM212100 02008KT P6SM BKN040
     FM220600 07010KT P6SM VCSH OVC035=

USA.gov is the U.S. government's official web portal to all federal, state and local government web resources and services.